sensor_id;sensor_type;location;lat;lon;timestamp;temperature;humidity
43991;DHT22;29654;50.784;20.604;2023-10-13T00:02:00;21.40;57.30
43991;DHT22;29654;50.784;20.604;2023-10-13T00:07:06;21.40;57.20
43991;DHT22;29654;50.784;20.604;2023-10-13T00:12:14;21.40;57.20
43991;DHT22;29654;50.784;20.604;2023-10-13T00:17:21;21.40;57.30
43991;DHT22;29654;50.784;20.604;2023-10-13T00:22:26;21.40;57.20
43991;DHT22;29654;50.784;20.604;2023-10-13T00:27:33;21.40;57.20
43991;DHT22;29654;50.784;20.604;2023-10-13T00:32:37;21.40;57.30
43991;DHT22;29654;50.784;20.604;2023-10-13T00:37:43;21.40;57.30
43991;DHT22;29654;50.784;20.604;2023-10-13T00:42:48;21.40;57.30
43991;DHT22;29654;50.784;20.604;2023-10-13T00:47:53;21.40;57.30
43991;DHT22;29654;50.784;20.604;2023-10-13T00:52:59;21.40;57.20
43991;DHT22;29654;50.784;20.604;2023-10-13T00:58:04;21.30;57.10
43991;DHT22;29654;50.784;20.604;2023-10-13T01:03:08;21.40;57.20
43991;DHT22;29654;50.784;20.604;2023-10-13T01:08:13;21.40;57.10
43991;DHT22;29654;50.784;20.604;2023-10-13T01:13:17;21.30;57.00
43991;DHT22;29654;50.784;20.604;2023-10-13T01:18:22;21.30;57.10
43991;DHT22;29654;50.784;20.604;2023-10-13T01:23:30;21.30;57.10
43991;DHT22;29654;50.784;20.604;2023-10-13T01:28:39;21.30;57.10
43991;DHT22;29654;50.784;20.604;2023-10-13T01:33:47;21.20;56.80
43991;DHT22;29654;50.784;20.604;2023-10-13T01:38:55;21.20;56.90
43991;DHT22;29654;50.784;20.604;2023-10-13T01:44:02;21.10;57.00
43991;DHT22;29654;50.784;20.604;2023-10-13T01:49:05;21.10;56.80
43991;DHT22;29654;50.784;20.604;2023-10-13T01:54:10;21.00;56.70
43991;DHT22;29654;50.784;20.604;2023-10-13T01:59:14;20.90;56.70
43991;DHT22;29654;50.784;20.604;2023-10-13T02:04:16;20.80;56.50
43991;DHT22;29654;50.784;20.604;2023-10-13T02:09:23;20.70;56.30
43991;DHT22;29654;50.784;20.604;2023-10-13T02:14:27;20.60;56.30
43991;DHT22;29654;50.784;20.604;2023-10-13T02:19:30;20.40;56.20
43991;DHT22;29654;50.784;20.604;2023-10-13T02:24:34;20.30;56.40
43991;DHT22;29654;50.784;20.604;2023-10-13T02:29:40;20.20;56.30
43991;DHT22;29654;50.784;20.604;2023-10-13T02:34:46;20.10;56.50
43991;DHT22;29654;50.784;20.604;2023-10-13T02:39:50;20.00;56.40
43991;DHT22;29654;50.784;20.604;2023-10-13T02:44:53;19.80;56.50
43991;DHT22;29654;50.784;20.604;2023-10-13T02:49:58;19.70;56.50
43991;DHT22;29654;50.784;20.604;2023-10-13T02:55:14;19.60;56.50
43991;DHT22;29654;50.784;20.604;2023-10-13T03:00:26;19.40;56.50
43991;DHT22;29654;50.784;20.604;2023-10-13T03:05:34;19.30;56.50
43991;DHT22;29654;50.784;20.604;2023-10-13T03:10:41;19.20;56.60
43991;DHT22;29654;50.784;20.604;2023-10-13T03:15:49;19.10;56.50
43991;DHT22;29654;50.784;20.604;2023-10-13T03:20:52;19.00;56.60
43991;DHT22;29654;50.784;20.604;2023-10-13T03:25:59;18.90;56.70
43991;DHT22;29654;50.784;20.604;2023-10-13T03:31:09;18.80;57.00
43991;DHT22;29654;50.784;20.604;2023-10-13T03:36:18;18.80;57.10
43991;DHT22;29654;50.784;20.604;2023-10-13T03:41:51;18.80;57.30
43991;DHT22;29654;50.784;20.604;2023-10-13T03:46:54;18.70;57.50
43991;DHT22;29654;50.784;20.604;2023-10-13T03:51:57;18.70;57.50
43991;DHT22;29654;50.784;20.604;2023-10-13T03:57:01;18.70;57.50
43991;DHT22;29654;50.784;20.604;2023-10-13T04:02:12;18.70;57.50
43991;DHT22;29654;50.784;20.604;2023-10-13T04:07:19;18.70;57.50
43991;DHT22;29654;50.784;20.604;2023-10-13T04:12:40;18.70;57.60
43991;DHT22;29654;50.784;20.604;2023-10-13T04:18:01;18.70;57.60
43991;DHT22;29654;50.784;20.604;2023-10-13T04:23:14;18.70;57.70
43991;DHT22;29654;50.784;20.604;2023-10-13T04:28:34;18.70;57.80
43991;DHT22;29654;50.784;20.604;2023-10-13T04:33:38;18.70;57.90
43991;DHT22;29654;50.784;20.604;2023-10-13T04:38:54;18.70;57.90
43991;DHT22;29654;50.784;20.604;2023-10-13T04:43:59;18.70;57.90
43991;DHT22;29654;50.784;20.604;2023-10-13T04:49:24;18.80;58.10
43991;DHT22;29654;50.784;20.604;2023-10-13T04:54:37;18.80;58.10
43991;DHT22;29654;50.784;20.604;2023-10-13T04:59:52;18.80;58.10
43991;DHT22;29654;50.784;20.604;2023-10-13T05:05:13;18.90;58.30
43991;DHT22;29654;50.784;20.604;2023-10-13T05:10:42;18.90;58.20
43991;DHT22;29654;50.784;20.604;2023-10-13T05:16:04;18.90;58.10
43991;DHT22;29654;50.784;20.604;2023-10-13T05:21:24;19.00;58.30
43991;DHT22;29654;50.784;20.604;2023-10-13T05:26:44;19.00;58.20
43991;DHT22;29654;50.784;20.604;2023-10-13T05:32:14;19.00;58.30
43991;DHT22;29654;50.784;20.604;2023-10-13T05:37:34;19.10;58.50
43991;DHT22;29654;50.784;20.604;2023-10-13T05:42:54;19.10;58.40
43991;DHT22;29654;50.784;20.604;2023-10-13T05:48:16;19.10;58.50
43991;DHT22;29654;50.784;20.604;2023-10-13T05:53:25;19.20;58.70
43991;DHT22;29654;50.784;20.604;2023-10-13T05:58:45;19.20;58.70
43991;DHT22;29654;50.784;20.604;2023-10-13T06:04:06;19.30;58.80
43991;DHT22;29654;50.784;20.604;2023-10-13T06:09:31;19.40;58.90
43991;DHT22;29654;50.784;20.604;2023-10-13T06:14:51;19.50;58.90
43991;DHT22;29654;50.784;20.604;2023-10-13T06:20:13;19.60;59.00
43991;DHT22;29654;50.784;20.604;2023-10-13T06:25:33;19.70;59.10
43991;DHT22;29654;50.784;20.604;2023-10-13T06:30:58;19.90;59.20
43991;DHT22;29654;50.784;20.604;2023-10-13T06:36:04;20.10;59.40
43991;DHT22;29654;50.784;20.604;2023-10-13T06:41:10;20.20;59.30
43991;DHT22;29654;50.784;20.604;2023-10-13T06:46:20;20.30;59.30
43991;DHT22;29654;50.784;20.604;2023-10-13T06:51:25;20.60;59.20
43991;DHT22;29654;50.784;20.604;2023-10-13T06:56:31;20.70;59.30
43991;DHT22;29654;50.784;20.604;2023-10-13T07:01:40;20.90;59.20
43991;DHT22;29654;50.784;20.604;2023-10-13T07:06:45;21.10;59.20
43991;DHT22;29654;50.784;20.604;2023-10-13T07:11:50;21.30;59.20
43991;DHT22;29654;50.784;20.604;2023-10-13T07:16:59;21.50;59.10
43991;DHT22;29654;50.784;20.604;2023-10-13T07:22:04;21.70;59.10
43991;DHT22;29654;50.784;20.604;2023-10-13T07:27:20;21.90;58.80
43991;DHT22;29654;50.784;20.604;2023-10-13T07:32:26;22.10;58.60
43991;DHT22;29654;50.784;20.604;2023-10-13T07:37:31;22.20;58.30
43991;DHT22;29654;50.784;20.604;2023-10-13T07:42:34;22.40;58.30
43991;DHT22;29654;50.784;20.604;2023-10-13T07:47:41;22.50;58.10
43991;DHT22;29654;50.784;20.604;2023-10-13T07:52:45;22.60;57.90
43991;DHT22;29654;50.784;20.604;2023-10-13T07:57:59;22.70;57.90
43991;DHT22;29654;50.784;20.604;2023-10-13T08:03:08;22.80;58.00
43991;DHT22;29654;50.784;20.604;2023-10-13T08:08:22;22.90;57.90
43991;DHT22;29654;50.784;20.604;2023-10-13T08:13:26;23.20;57.90
43991;DHT22;29654;50.784;20.604;2023-10-13T08:18:29;23.20;57.60
43991;DHT22;29654;50.784;20.604;2023-10-13T08:23:33;23.40;57.60
43991;DHT22;29654;50.784;20.604;2023-10-13T08:28:53;23.50;58.10
43991;DHT22;29654;50.784;20.604;2023-10-13T08:33:57;23.60;57.50
43991;DHT22;29654;50.784;20.604;2023-10-13T08:39:08;23.80;57.30
43991;DHT22;29654;50.784;20.604;2023-10-13T08:44:40;23.90;57.10
43991;DHT22;29654;50.784;20.604;2023-10-13T08:49:53;24.00;57.00
43991;DHT22;29654;50.784;20.604;2023-10-13T08:55:12;24.10;57.00
43991;DHT22;29654;50.784;20.604;2023-10-13T09:00:29;24.30;57.00
43991;DHT22;29654;50.784;20.604;2023-10-13T09:05:47;24.40;57.00
43991;DHT22;29654;50.784;20.604;2023-10-13T09:11:11;24.50;56.70
43991;DHT22;29654;50.784;20.604;2023-10-13T09:16:15;24.70;56.40
43991;DHT22;29654;50.784;20.604;2023-10-13T09:21:41;24.80;56.10
43991;DHT22;29654;50.784;20.604;2023-10-13T09:26:58;24.90;56.00
43991;DHT22;29654;50.784;20.604;2023-10-13T09:32:03;25.00;55.80
43991;DHT22;29654;50.784;20.604;2023-10-13T09:37:12;25.10;55.70
43991;DHT22;29654;50.784;20.604;2023-10-13T09:42:23;25.10;55.50
43991;DHT22;29654;50.784;20.604;2023-10-13T09:47:28;25.20;55.30
43991;DHT22;29654;50.784;20.604;2023-10-13T09:52:37;25.20;55.40
43991;DHT22;29654;50.784;20.604;2023-10-13T09:57:47;25.30;55.40
43991;DHT22;29654;50.784;20.604;2023-10-13T10:02:58;25.40;55.30
43991;DHT22;29654;50.784;20.604;2023-10-13T10:08:24;25.40;55.10
43991;DHT22;29654;50.784;20.604;2023-10-13T10:13:44;25.50;54.70
43991;DHT22;29654;50.784;20.604;2023-10-13T10:19:00;25.60;54.70
43991;DHT22;29654;50.784;20.604;2023-10-13T10:24:14;25.60;54.60
43991;DHT22;29654;50.784;20.604;2023-10-13T10:29:26;25.70;54.20
43991;DHT22;29654;50.784;20.604;2023-10-13T10:34:33;25.70;54.30
43991;DHT22;29654;50.784;20.604;2023-10-13T10:39:36;25.70;54.30
43991;DHT22;29654;50.784;20.604;2023-10-13T10:44:49;25.80;54.60
43991;DHT22;29654;50.784;20.604;2023-10-13T10:49:56;25.90;54.60
43991;DHT22;29654;50.784;20.604;2023-10-13T10:54:59;26.00;54.60
43991;DHT22;29654;50.784;20.604;2023-10-13T11:00:04;26.10;54.30
43991;DHT22;29654;50.784;20.604;2023-10-13T11:05:15;26.30;54.10
43991;DHT22;29654;50.784;20.604;2023-10-13T11:10:20;26.30;54.00
43991;DHT22;29654;50.784;20.604;2023-10-13T11:15:29;26.50;53.80
43991;DHT22;29654;50.784;20.604;2023-10-13T11:20:45;26.60;53.30
43991;DHT22;29654;50.784;20.604;2023-10-13T11:25:56;26.70;53.40
43991;DHT22;29654;50.784;20.604;2023-10-13T11:31:01;26.80;52.90
43991;DHT22;29654;50.784;20.604;2023-10-13T11:36:11;26.80;52.80
43991;DHT22;29654;50.784;20.604;2023-10-13T11:41:18;26.80;52.70
43991;DHT22;29654;50.784;20.604;2023-10-13T11:46:24;26.80;52.60
43991;DHT22;29654;50.784;20.604;2023-10-13T11:51:46;26.90;52.50
43991;DHT22;29654;50.784;20.604;2023-10-13T11:56:50;26.90;52.60
43991;DHT22;29654;50.784;20.604;2023-10-13T12:01:54;26.90;52.50
43991;DHT22;29654;50.784;20.604;2023-10-13T12:07:14;27.00;52.50
43991;DHT22;29654;50.784;20.604;2023-10-13T12:12:18;27.10;52.60
43991;DHT22;29654;50.784;20.604;2023-10-13T12:17:24;27.10;52.50
43991;DHT22;29654;50.784;20.604;2023-10-13T12:22:32;27.30;52.20
43991;DHT22;29654;50.784;20.604;2023-10-13T12:27:39;27.40;52.00
43991;DHT22;29654;50.784;20.604;2023-10-13T12:32:51;27.40;51.70
43991;DHT22;29654;50.784;20.604;2023-10-13T12:38:07;27.40;51.40
43991;DHT22;29654;50.784;20.604;2023-10-13T12:43:27;27.50;51.60
43991;DHT22;29654;50.784;20.604;2023-10-13T12:48:48;27.60;51.60
43991;DHT22;29654;50.784;20.604;2023-10-13T12:54:18;27.60;51.10
43991;DHT22;29654;50.784;20.604;2023-10-13T12:59:36;27.70;50.80
43991;DHT22;29654;50.784;20.604;2023-10-13T13:04:41;27.60;50.70
43991;DHT22;29654;50.784;20.604;2023-10-13T13:09:45;27.70;50.60
43991;DHT22;29654;50.784;20.604;2023-10-13T13:14:47;27.70;50.60
43991;DHT22;29654;50.784;20.604;2023-10-13T13:19:57;27.60;50.40
43991;DHT22;29654;50.784;20.604;2023-10-13T13:25:00;27.70;50.10
43991;DHT22;29654;50.784;20.604;2023-10-13T13:30:09;27.70;49.90
43991;DHT22;29654;50.784;20.604;2023-10-13T13:35:15;27.70;50.00
43991;DHT22;29654;50.784;20.604;2023-10-13T13:40:19;27.70;50.10
43991;DHT22;29654;50.784;20.604;2023-10-13T13:45:22;27.70;50.10
43991;DHT22;29654;50.784;20.604;2023-10-13T13:50:31;27.70;49.90
43991;DHT22;29654;50.784;20.604;2023-10-13T13:55:39;27.80;49.70
43991;DHT22;29654;50.784;20.604;2023-10-13T14:00:42;27.70;49.80
43991;DHT22;29654;50.784;20.604;2023-10-13T14:05:50;27.70;49.80
43991;DHT22;29654;50.784;20.604;2023-10-13T14:10:53;27.70;49.60
43991;DHT22;29654;50.784;20.604;2023-10-13T14:16:13;27.70;49.70
43991;DHT22;29654;50.784;20.604;2023-10-13T14:21:19;27.70;49.80
43991;DHT22;29654;50.784;20.604;2023-10-13T14:26:25;27.70;49.60
43991;DHT22;29654;50.784;20.604;2023-10-13T14:31:28;27.60;49.60
43991;DHT22;29654;50.784;20.604;2023-10-13T14:36:32;27.60;49.60
43991;DHT22;29654;50.784;20.604;2023-10-13T14:41:36;27.60;49.70
43991;DHT22;29654;50.784;20.604;2023-10-13T14:46:40;27.50;49.70
43991;DHT22;29654;50.784;20.604;2023-10-13T14:51:46;27.50;49.70
43991;DHT22;29654;50.784;20.604;2023-10-13T14:56:50;27.40;49.50
43991;DHT22;29654;50.784;20.604;2023-10-13T15:01:55;27.30;49.60
43991;DHT22;29654;50.784;20.604;2023-10-13T15:07:00;27.30;49.60
43991;DHT22;29654;50.784;20.604;2023-10-13T15:12:04;27.20;49.70
43991;DHT22;29654;50.784;20.604;2023-10-13T15:17:09;27.00;49.90
43991;DHT22;29654;50.784;20.604;2023-10-13T15:22:13;26.90;49.80
43991;DHT22;29654;50.784;20.604;2023-10-13T15:27:22;26.80;50.00
43991;DHT22;29654;50.784;20.604;2023-10-13T15:32:25;26.70;50.10
43991;DHT22;29654;50.784;20.604;2023-10-13T15:37:45;26.60;50.30
43991;DHT22;29654;50.784;20.604;2023-10-13T15:42:49;26.40;50.40
43991;DHT22;29654;50.784;20.604;2023-10-13T15:47:51;26.30;50.40
43991;DHT22;29654;50.784;20.604;2023-10-13T15:52:56;26.20;50.50
43991;DHT22;29654;50.784;20.604;2023-10-13T15:57:59;26.00;50.60
43991;DHT22;29654;50.784;20.604;2023-10-13T16:03:05;25.90;50.70
43991;DHT22;29654;50.784;20.604;2023-10-13T16:08:12;25.70;50.70
43991;DHT22;29654;50.784;20.604;2023-10-13T16:13:15;25.60;50.90
43991;DHT22;29654;50.784;20.604;2023-10-13T16:18:20;25.50;51.00
43991;DHT22;29654;50.784;20.604;2023-10-13T16:23:25;25.40;51.10
43991;DHT22;29654;50.784;20.604;2023-10-13T16:28:28;25.20;51.20
43991;DHT22;29654;50.784;20.604;2023-10-13T16:33:35;25.10;51.20
43991;DHT22;29654;50.784;20.604;2023-10-13T16:38:40;24.90;51.30
43991;DHT22;29654;50.784;20.604;2023-10-13T16:43:46;24.70;51.40
43991;DHT22;29654;50.784;20.604;2023-10-13T16:48:48;24.50;51.60
43991;DHT22;29654;50.784;20.604;2023-10-13T16:53:52;24.40;51.90
43991;DHT22;29654;50.784;20.604;2023-10-13T16:58:55;24.30;52.10
43991;DHT22;29654;50.784;20.604;2023-10-13T17:03:58;24.20;52.30
43991;DHT22;29654;50.784;20.604;2023-10-13T17:09:02;24.10;52.50
43991;DHT22;29654;50.784;20.604;2023-10-13T17:14:05;24.00;52.60
43991;DHT22;29654;50.784;20.604;2023-10-13T17:19:07;23.90;52.70
43991;DHT22;29654;50.784;20.604;2023-10-13T17:24:12;23.80;52.90
43991;DHT22;29654;50.784;20.604;2023-10-13T17:29:14;23.80;53.10
43991;DHT22;29654;50.784;20.604;2023-10-13T17:34:17;23.70;53.20
43991;DHT22;29654;50.784;20.604;2023-10-13T17:39:21;23.60;53.30
43991;DHT22;29654;50.784;20.604;2023-10-13T17:44:25;23.60;53.50
43991;DHT22;29654;50.784;20.604;2023-10-13T17:49:28;23.50;53.50
43991;DHT22;29654;50.784;20.604;2023-10-13T17:54:32;23.50;53.70
43991;DHT22;29654;50.784;20.604;2023-10-13T17:59:34;23.40;53.70
43991;DHT22;29654;50.784;20.604;2023-10-13T18:04:37;23.40;53.70
43991;DHT22;29654;50.784;20.604;2023-10-13T18:09:43;23.30;53.80
43991;DHT22;29654;50.784;20.604;2023-10-13T18:14:46;23.30;53.90
43991;DHT22;29654;50.784;20.604;2023-10-13T18:19:48;23.20;53.90
43991;DHT22;29654;50.784;20.604;2023-10-13T18:24:52;23.20;54.00
43991;DHT22;29654;50.784;20.604;2023-10-13T18:29:55;23.10;54.10
43991;DHT22;29654;50.784;20.604;2023-10-13T18:34:57;23.10;54.20
43991;DHT22;29654;50.784;20.604;2023-10-13T18:40:01;23.10;54.40
43991;DHT22;29654;50.784;20.604;2023-10-13T18:45:08;23.10;54.60
43991;DHT22;29654;50.784;20.604;2023-10-13T18:50:11;23.10;54.70
43991;DHT22;29654;50.784;20.604;2023-10-13T18:55:17;23.00;54.80
43991;DHT22;29654;50.784;20.604;2023-10-13T19:00:20;23.00;54.90
43991;DHT22;29654;50.784;20.604;2023-10-13T19:05:24;23.10;54.90
43991;DHT22;29654;50.784;20.604;2023-10-13T19:10:28;23.00;54.90
43991;DHT22;29654;50.784;20.604;2023-10-13T19:15:35;23.00;54.90
43991;DHT22;29654;50.784;20.604;2023-10-13T19:20:39;23.00;55.00
43991;DHT22;29654;50.784;20.604;2023-10-13T19:25:43;23.00;54.70
43991;DHT22;29654;50.784;20.604;2023-10-13T19:30:47;23.00;54.80
43991;DHT22;29654;50.784;20.604;2023-10-13T19:35:50;23.00;54.80
43991;DHT22;29654;50.784;20.604;2023-10-13T19:40:54;22.90;54.90
43991;DHT22;29654;50.784;20.604;2023-10-13T19:45:57;22.90;55.20
43991;DHT22;29654;50.784;20.604;2023-10-13T19:51:00;22.90;55.30
43991;DHT22;29654;50.784;20.604;2023-10-13T19:56:04;22.90;55.30
43991;DHT22;29654;50.784;20.604;2023-10-13T20:01:07;22.90;55.50
43991;DHT22;29654;50.784;20.604;2023-10-13T20:06:11;22.90;55.50
43991;DHT22;29654;50.784;20.604;2023-10-13T20:11:22;23.00;55.60
43991;DHT22;29654;50.784;20.604;2023-10-13T20:16:26;23.10;55.80
43991;DHT22;29654;50.784;20.604;2023-10-13T20:21:30;23.10;55.70
43991;DHT22;29654;50.784;20.604;2023-10-13T20:26:38;23.20;55.70
43991;DHT22;29654;50.784;20.604;2023-10-13T20:31:43;23.20;55.60
43991;DHT22;29654;50.784;20.604;2023-10-13T20:36:48;23.30;55.50
43991;DHT22;29654;50.784;20.604;2023-10-13T20:41:58;23.40;55.40
43991;DHT22;29654;50.784;20.604;2023-10-13T20:47:06;23.40;55.30
43991;DHT22;29654;50.784;20.604;2023-10-13T20:52:13;23.40;55.20
43991;DHT22;29654;50.784;20.604;2023-10-13T20:57:19;23.40;55.10
43991;DHT22;29654;50.784;20.604;2023-10-13T21:02:23;23.40;55.10
43991;DHT22;29654;50.784;20.604;2023-10-13T21:07:27;23.40;54.90
43991;DHT22;29654;50.784;20.604;2023-10-13T21:12:33;23.40;55.00
43991;DHT22;29654;50.784;20.604;2023-10-13T21:17:36;23.40;54.90
43991;DHT22;29654;50.784;20.604;2023-10-13T21:22:42;23.30;54.80
43991;DHT22;29654;50.784;20.604;2023-10-13T21:27:51;23.30;54.90
43991;DHT22;29654;50.784;20.604;2023-10-13T21:32:55;23.20;55.00
43991;DHT22;29654;50.784;20.604;2023-10-13T21:38:00;23.20;54.90
43991;DHT22;29654;50.784;20.604;2023-10-13T21:43:05;23.10;54.90
43991;DHT22;29654;50.784;20.604;2023-10-13T21:48:10;23.10;55.00
43991;DHT22;29654;50.784;20.604;2023-10-13T21:53:14;23.00;54.90
43991;DHT22;29654;50.784;20.604;2023-10-13T21:58:20;23.00;55.00
43991;DHT22;29654;50.784;20.604;2023-10-13T22:03:27;22.90;55.10
43991;DHT22;29654;50.784;20.604;2023-10-13T22:08:30;22.80;55.10
43991;DHT22;29654;50.784;20.604;2023-10-13T22:13:35;22.80;55.20
43991;DHT22;29654;50.784;20.604;2023-10-13T22:18:39;22.70;55.30
43991;DHT22;29654;50.784;20.604;2023-10-13T22:23:45;22.70;55.30
43991;DHT22;29654;50.784;20.604;2023-10-13T22:28:50;22.60;55.30
43991;DHT22;29654;50.784;20.604;2023-10-13T22:33:56;22.60;55.50
43991;DHT22;29654;50.784;20.604;2023-10-13T22:39:00;22.50;55.40
43991;DHT22;29654;50.784;20.604;2023-10-13T22:44:05;22.50;55.40
43991;DHT22;29654;50.784;20.604;2023-10-13T22:49:09;22.40;55.60
43991;DHT22;29654;50.784;20.604;2023-10-13T22:54:16;22.30;55.60
43991;DHT22;29654;50.784;20.604;2023-10-13T22:59:24;22.20;55.70
43991;DHT22;29654;50.784;20.604;2023-10-13T23:04:28;22.20;55.90
43991;DHT22;29654;50.784;20.604;2023-10-13T23:09:35;22.10;55.90
43991;DHT22;29654;50.784;20.604;2023-10-13T23:14:50;22.00;55.90
43991;DHT22;29654;50.784;20.604;2023-10-13T23:19:55;22.00;56.00
43991;DHT22;29654;50.784;20.604;2023-10-13T23:24:59;22.00;56.00
43991;DHT22;29654;50.784;20.604;2023-10-13T23:30:06;22.00;56.00
43991;DHT22;29654;50.784;20.604;2023-10-13T23:35:11;21.90;55.90
43991;DHT22;29654;50.784;20.604;2023-10-13T23:40:14;22.70;55.50
43991;DHT22;29654;50.784;20.604;2023-10-13T23:45:24;22.10;55.60
43991;DHT22;29654;50.784;20.604;2023-10-13T23:50:28;21.90;55.60
43991;DHT22;29654;50.784;20.604;2023-10-13T23:55:33;21.70;55.60
